createdAt,value
2023-01-18T00:03:35.984Z,2.94
2023-01-18T00:08:38.816Z,2.92
2023-01-18T00:13:40.437Z,3.01
2023-01-18T00:18:42.898Z,3.17
2023-01-18T00:23:44.538Z,2.95
2023-01-18T00:28:46.143Z,3.02
2023-01-18T00:33:49.304Z,3.15
2023-01-18T00:38:51.611Z,3.12
2023-01-18T00:43:53.821Z,3.16
2023-01-18T00:48:57.256Z,3.14
2023-01-18T00:53:58.810Z,2.66
2023-01-18T00:59:00.355Z,2.99
2023-01-18T01:04:20.295Z,3.08
2023-01-18T01:09:24.772Z,3.04
2023-01-18T01:14:45.290Z,3.12
2023-01-18T01:20:05.159Z,2.97
2023-01-18T01:25:25.447Z,3.00
2023-01-18T01:30:27.038Z,2.86
2023-01-18T01:35:28.612Z,2.74
2023-01-18T01:40:30.163Z,2.93
2023-01-18T01:45:32.271Z,2.73
2023-01-18T01:50:39.559Z,2.49
2023-01-18T01:55:41.717Z,2.68
2023-01-18T02:00:43.931Z,2.83
2023-01-18T02:05:48.000Z,2.75
2023-01-18T02:10:50.506Z,2.31
2023-01-18T02:16:10.573Z,2.77
2023-01-18T02:21:20.790Z,2.88
2023-01-18T02:26:30.575Z,2.80
2023-01-18T02:32:10.529Z,2.54
2023-01-18T02:37:30.766Z,2.68
2023-01-18T02:42:52.762Z,2.88
2023-01-18T02:47:54.898Z,3.02
2023-01-18T02:52:56.796Z,2.95
2023-01-18T02:58:06.713Z,2.99
2023-01-18T03:03:10.909Z,3.00
2023-01-18T03:08:20.813Z,3.04
2023-01-18T03:13:47.142Z,3.04
2023-01-18T03:19:00.690Z,2.89
2023-01-18T03:24:04.710Z,3.00
2023-01-18T03:29:25.184Z,2.97
2023-01-18T03:34:34.222Z,3.12
2023-01-18T03:39:47.634Z,2.95
2023-01-18T03:45:15.822Z,3.18
2023-01-18T03:50:17.867Z,3.09
2023-01-18T03:55:36.926Z,2.94
2023-01-18T04:00:39.570Z,3.08
2023-01-18T04:05:41.512Z,2.90
2023-01-18T04:10:43.175Z,2.65
2023-01-18T04:15:44.765Z,2.92
2023-01-18T04:20:46.387Z,2.37
2023-01-18T04:25:51.225Z,2.91
2023-01-18T04:30:54.544Z,2.91
2023-01-18T04:35:56.123Z,2.93
2023-01-18T04:41:02.767Z,2.97
2023-01-18T04:46:04.472Z,2.74
2023-01-18T04:51:11.579Z,2.83
2023-01-18T04:56:13.190Z,2.45
2023-01-18T05:01:16.616Z,2.64
2023-01-18T05:06:19.934Z,2.99
2023-01-18T05:11:24.196Z,2.91
2023-01-18T05:16:25.815Z,2.81
2023-01-18T05:21:28.591Z,2.67
2023-01-18T05:26:30.296Z,2.86
2023-01-18T05:31:32.156Z,2.66
2023-01-18T05:36:34.023Z,2.69
2023-01-18T05:41:35.733Z,2.75
2023-01-18T05:46:37.294Z,2.90
2023-01-18T05:51:38.854Z,2.89
2023-01-18T05:56:42.120Z,2.81
2023-01-18T06:01:43.724Z,2.81
2023-01-18T06:06:45.347Z,2.77
2023-01-18T06:11:46.939Z,2.76
2023-01-18T06:16:48.632Z,2.70
2023-01-18T06:21:50.240Z,2.78
2023-01-18T06:26:51.810Z,2.83
2023-01-18T06:31:53.769Z,2.76
2023-01-18T06:36:55.462Z,2.88
2023-01-18T06:41:57.461Z,2.90
2023-01-18T06:46:59.150Z,2.92
2023-01-18T06:52:00.765Z,2.91
2023-01-18T06:57:02.421Z,2.95
2023-01-18T07:02:04.951Z,2.97
2023-01-18T07:07:06.719Z,2.91
2023-01-18T07:12:08.262Z,2.96
2023-01-18T07:17:10.107Z,3.01
2023-01-18T07:22:13.165Z,2.86
2023-01-18T07:27:14.716Z,3.03
2023-01-18T07:32:16.377Z,3.08
2023-01-18T07:37:18.068Z,3.02
2023-01-18T07:42:19.718Z,3.07
2023-01-18T07:47:21.520Z,3.16
2023-01-18T07:52:23.159Z,3.14
2023-01-18T07:57:25.769Z,3.10
2023-01-18T08:02:27.433Z,3.09
2023-01-18T08:07:32.308Z,2.87
2023-01-18T08:12:33.954Z,3.03
2023-01-18T08:17:35.578Z,2.69
2023-01-18T08:22:37.226Z,2.81
2023-01-18T08:27:38.870Z,3.11
2023-01-18T08:32:40.943Z,3.13
2023-01-18T08:37:42.522Z,3.24
2023-01-18T08:42:44.100Z,3.11
2023-01-18T08:47:45.693Z,3.15
2023-01-18T08:52:47.243Z,3.07
2023-01-18T08:57:49.604Z,3.13
2023-01-18T09:02:51.703Z,3.06
2023-01-18T09:07:54.156Z,3.15
2023-01-18T09:12:56.310Z,2.97
2023-01-18T09:17:58.488Z,3.08
2023-01-18T09:23:04.793Z,3.18
2023-01-18T09:28:06.566Z,3.16
2023-01-18T09:33:08.170Z,3.38
2023-01-18T09:38:12.328Z,3.43
2023-01-18T09:43:17.455Z,3.27
2023-01-18T09:48:30.024Z,3.23
2023-01-18T09:53:57.673Z,3.09
2023-01-18T09:59:17.993Z,3.12
2023-01-18T10:04:39.822Z,3.16
2023-01-18T10:09:50.115Z,3.08
2023-01-18T10:15:07.803Z,3.02
2023-01-18T10:20:16.907Z,3.22
2023-01-18T10:25:47.183Z,3.17
2023-01-18T10:30:58.112Z,3.33
2023-01-18T10:36:09.624Z,3.24
2023-01-18T10:41:19.054Z,3.18
2023-01-18T10:46:21.191Z,3.59
2023-01-18T10:51:36.941Z,3.28
2023-01-18T10:56:39.933Z,3.55
2023-01-18T11:01:53.137Z,3.77
2023-01-18T11:06:56.804Z,3.76
2023-01-18T11:12:37.046Z,3.73
2023-01-18T11:17:39.173Z,3.62
2023-01-18T11:22:59.835Z,3.81
2023-01-18T11:28:02.443Z,3.93
2023-01-18T11:33:04.326Z,3.98
2023-01-18T11:38:10.550Z,3.86
2023-01-18T11:43:24.747Z,3.97
2023-01-18T11:48:48.522Z,3.82
2023-01-18T11:53:58.837Z,3.89
2023-01-18T11:59:01.911Z,3.75
2023-01-18T12:04:12.286Z,3.79
2023-01-18T12:09:29.145Z,3.97
2023-01-18T12:14:37.039Z,3.56
2023-01-18T12:19:44.880Z,3.87
2023-01-18T12:25:25.658Z,3.56
2023-01-18T12:30:51.911Z,3.89
2023-01-18T12:36:15.333Z,3.98
2023-01-18T12:41:30.995Z,3.93
2023-01-18T12:47:03.143Z,4.01
2023-01-18T12:52:18.196Z,4.05
2023-01-18T12:57:21.400Z,4.00
2023-01-18T13:02:45.591Z,3.69
2023-01-18T13:07:55.307Z,3.97
2023-01-18T13:12:57.667Z,3.73
2023-01-18T13:18:08.074Z,3.99
2023-01-18T13:23:39.342Z,3.62
2023-01-18T13:28:41.117Z,3.79
2023-01-18T13:33:47.066Z,3.73
2023-01-18T13:39:03.397Z,3.94
2023-01-18T13:44:13.149Z,3.85
2023-01-18T13:49:37.094Z,3.84
2023-01-18T13:54:39.091Z,3.81
2023-01-18T13:59:46.656Z,3.57
2023-01-18T14:05:03.686Z,3.68
2023-01-18T14:10:08.184Z,3.74
2023-01-18T14:15:23.740Z,3.84
2023-01-18T14:20:34.531Z,3.86
2023-01-18T14:25:43.261Z,3.50
2023-01-18T14:30:46.360Z,3.86
2023-01-18T14:35:58.322Z,3.97
2023-01-18T14:41:05.129Z,3.73
2023-01-18T14:46:24.708Z,3.69
2023-01-18T14:51:28.166Z,3.83
2023-01-18T14:56:33.238Z,3.81
2023-01-18T15:01:37.905Z,3.62
2023-01-18T15:06:45.123Z,3.76
2023-01-18T15:11:47.739Z,3.56
2023-01-18T15:16:52.092Z,3.58
2023-01-18T15:21:53.803Z,3.64
2023-01-18T15:26:57.500Z,3.50
2023-01-18T15:32:20.140Z,3.67
2023-01-18T15:37:37.459Z,3.73
2023-01-18T15:42:43.089Z,3.75
2023-01-18T15:47:52.791Z,3.73
2023-01-18T15:53:06.179Z,3.64
2023-01-18T15:58:12.265Z,3.75
2023-01-18T16:03:21.762Z,3.63
2023-01-18T16:08:23.874Z,3.65
2023-01-18T16:13:38.387Z,3.73
2023-01-18T16:19:31.741Z,3.63
2023-01-18T16:24:46.226Z,3.65
2023-01-18T16:29:49.988Z,3.66
2023-01-18T16:34:54.490Z,3.34
2023-01-18T16:39:56.301Z,3.64
2023-01-18T16:44:57.947Z,3.62
2023-01-18T16:49:59.628Z,3.22
2023-01-18T16:55:01.216Z,3.50
2023-01-18T17:00:16.082Z,3.25
2023-01-18T17:05:17.968Z,3.53
2023-01-18T17:10:31.596Z,3.61
2023-01-18T17:15:34.664Z,3.62
2023-01-18T17:20:36.318Z,3.61
2023-01-18T17:25:38.078Z,3.59
2023-01-18T17:30:40.819Z,3.37
2023-01-18T17:35:42.723Z,3.70
2023-01-18T17:40:44.719Z,3.46
2023-01-18T17:45:59.627Z,3.55
2023-01-18T17:51:07.618Z,3.68
2023-01-18T17:56:14.901Z,3.57
2023-01-18T18:01:17.235Z,3.56
2023-01-18T18:06:30.346Z,3.42
2023-01-18T18:11:32.753Z,3.58
2023-01-18T18:16:42.605Z,3.58
2023-01-18T18:21:45.806Z,3.44
2023-01-18T18:26:47.525Z,3.46
2023-01-18T18:31:49.220Z,3.50
2023-01-18T18:36:50.912Z,3.27
2023-01-18T18:41:53.258Z,3.47
2023-01-18T18:46:54.850Z,3.44
2023-01-18T18:51:56.535Z,3.28
2023-01-18T18:57:00.065Z,3.33
2023-01-18T19:02:01.720Z,3.26
2023-01-18T19:07:03.360Z,3.33
2023-01-18T19:12:05.033Z,3.28
2023-01-18T19:17:07.301Z,3.34
2023-01-18T19:22:08.934Z,3.40
2023-01-18T19:27:10.686Z,3.06
2023-01-18T19:32:12.357Z,3.32
2023-01-18T19:37:14.018Z,3.12
2023-01-18T19:42:15.573Z,3.31
2023-01-18T19:47:17.113Z,3.19
2023-01-18T19:52:18.681Z,2.94
2023-01-18T19:57:20.247Z,3.12
2023-01-18T20:02:22.519Z,3.02
2023-01-18T20:07:24.289Z,3.06
2023-01-18T20:12:29.233Z,3.07
2023-01-18T20:17:30.910Z,2.99
2023-01-18T20:22:32.512Z,3.02
2023-01-18T20:27:34.193Z,3.02
2023-01-18T20:32:35.812Z,2.93
2023-01-18T20:37:37.554Z,2.95
2023-01-18T20:42:39.847Z,3.08
2023-01-18T20:47:41.425Z,2.82
2023-01-18T20:52:43.643Z,2.91
2023-01-18T20:57:45.932Z,2.94
2023-01-18T21:02:48.565Z,2.98
2023-01-18T21:07:50.454Z,2.84
2023-01-18T21:12:52.067Z,2.95
2023-01-18T21:17:54.156Z,2.85
2023-01-18T21:22:59.655Z,2.91
2023-01-18T21:28:02.615Z,2.82
2023-01-18T21:33:04.545Z,2.58
2023-01-18T21:38:07.299Z,2.53
2023-01-18T21:43:35.304Z,2.53
2023-01-18T21:48:37.577Z,2.38
2023-01-18T21:54:00.857Z,2.37
2023-01-18T21:59:03.037Z,2.48
2023-01-18T22:04:31.925Z,2.21
2023-01-18T22:09:33.651Z,2.19
2023-01-18T22:14:35.198Z,2.13
2023-01-18T22:19:36.782Z,2.03
2023-01-18T22:24:39.052Z,2.24
2023-01-18T22:29:40.736Z,2.07
2023-01-18T22:34:42.315Z,2.02
2023-01-18T22:39:43.845Z,1.90
2023-01-18T22:44:45.426Z,1.99
2023-01-18T22:49:47.138Z,1.89
2023-01-18T22:54:48.716Z,1.80
2023-01-18T22:59:50.283Z,1.97
2023-01-18T23:04:52.070Z,1.74
2023-01-18T23:09:53.624Z,1.80
2023-01-18T23:15:13.920Z,1.78
2023-01-18T23:20:15.548Z,1.67
2023-01-18T23:25:17.196Z,1.63
2023-01-18T23:30:19.121Z,1.29
2023-01-18T23:35:20.673Z,1.36
2023-01-18T23:40:40.932Z,1.54
2023-01-18T23:46:01.896Z,1.55
2023-01-18T23:51:22.826Z,1.47
2023-01-18T23:56:24.536Z,1.35
